createdAt,value
2019-02-27T00:01:55.675Z,33.90
2019-02-27T00:04:23.568Z,37.23
2019-02-27T00:06:51.373Z,40.30
2019-02-27T00:09:20.618Z,43.47
2019-02-27T00:11:48.501Z,36.20
2019-02-27T00:14:16.555Z,39.53
2019-02-27T00:16:45.278Z,37.80
2019-02-27T00:19:13.231Z,38.60
2019-02-27T00:21:43.541Z,35.57
2019-02-27T00:24:12.642Z,31.47
2019-02-27T00:26:42.380Z,32.80
2019-02-27T00:29:10.259Z,32.77
2019-02-27T00:31:38.189Z,35.30
2019-02-27T00:34:05.988Z,36.40
2019-02-27T00:36:33.775Z,30.73
2019-02-27T00:39:01.834Z,35.73
2019-02-27T00:41:29.624Z,35.47
2019-02-27T00:44:01.121Z,42.27
2019-02-27T00:46:27.320Z,36.10
2019-02-27T00:48:59.004Z,37.17
2019-02-27T00:51:24.954Z,34.27
2019-02-27T00:53:52.926Z,33.20
2019-02-27T00:56:20.720Z,35.63
2019-02-27T00:58:48.483Z,34.23
2019-02-27T01:01:16.441Z,32.90
2019-02-27T01:03:50.242Z,34.73
2019-02-27T01:06:18.065Z,35.73
2019-02-27T01:08:45.993Z,33.67
2019-02-27T01:11:18.116Z,38.30
2019-02-27T01:13:45.259Z,38.03
2019-02-27T01:16:17.030Z,38.27
2019-02-27T01:18:43.054Z,37.87
2019-02-27T01:21:11.068Z,34.20
2019-02-27T01:23:43.742Z,32.80
2019-02-27T01:26:09.682Z,36.80
2019-02-27T01:28:37.571Z,39.50
2019-02-27T01:31:05.453Z,34.70
2019-02-27T01:33:37.817Z,38.00
2019-02-27T01:36:03.087Z,40.10
2019-02-27T01:38:32.819Z,36.47
2019-02-27T01:41:00.903Z,33.90
2019-02-27T01:43:28.978Z,30.70
2019-02-27T01:45:56.756Z,38.30
2019-02-27T01:48:24.724Z,35.03
2019-02-27T01:50:54.967Z,35.87
2019-02-27T01:53:22.411Z,36.33
2019-02-27T01:55:50.191Z,38.97
2019-02-27T01:58:19.127Z,36.00
2019-02-27T02:00:47.152Z,36.57
2019-02-27T02:03:14.926Z,34.57
2019-02-27T02:05:44.505Z,36.77
2019-02-27T02:08:14.005Z,35.63
2019-02-27T02:10:42.341Z,35.27
2019-02-27T02:13:26.767Z,40.30
2019-02-27T02:17:00.091Z,33.60
2019-02-27T02:20:49.562Z,36.07
2019-02-27T02:23:54.647Z,38.30
2019-02-27T02:26:50.893Z,39.73
2019-02-27T02:30:29.811Z,27.83
2019-02-27T02:33:39.446Z,31.50
2019-02-27T02:36:35.020Z,35.60
2019-02-27T02:39:57.533Z,37.70
2019-02-27T02:42:50.021Z,34.07
2019-02-27T02:45:51.539Z,32.40
2019-02-27T02:48:44.053Z,35.37
2019-02-27T02:52:04.534Z,33.00
2019-02-27T02:55:11.908Z,35.27
2019-02-27T02:58:34.638Z,36.57
2019-02-27T03:01:42.051Z,35.57
2019-02-27T03:04:50.673Z,37.57
2019-02-27T03:08:20.373Z,36.77
2019-02-27T03:11:34.654Z,40.77
2019-02-27T03:14:54.365Z,41.93
2019-02-27T03:18:30.777Z,38.90
2019-02-27T03:21:36.922Z,39.23
2019-02-27T03:25:03.605Z,41.47
2019-02-27T03:28:18.500Z,46.43
2019-02-27T03:31:44.013Z,36.03
2019-02-27T03:35:09.159Z,40.03
2019-02-27T03:38:05.257Z,44.33
2019-02-27T03:45:36.644Z,36.77
2019-02-27T03:48:52.916Z,37.77
2019-02-27T03:52:36.119Z,34.90
2019-02-27T03:55:50.284Z,37.90
2019-02-27T03:59:23.802Z,35.83
2019-02-27T04:02:52.509Z,41.30
2019-02-27T04:06:16.921Z,40.73
2019-02-27T04:09:00.269Z,35.63
2019-02-27T04:11:30.744Z,37.87
2019-02-27T04:14:04.764Z,36.93
2019-02-27T04:16:30.651Z,35.43
2019-02-27T04:19:02.927Z,36.70
2019-02-27T04:21:28.502Z,37.70
2019-02-27T04:23:56.476Z,34.03
2019-02-27T04:26:24.235Z,32.77
2019-02-27T04:28:52.136Z,39.47
2019-02-27T04:31:19.913Z,32.97
2019-02-27T04:33:47.863Z,33.67
2019-02-27T04:36:16.962Z,33.50
2019-02-27T04:38:44.883Z,38.57
2019-02-27T04:41:12.670Z,42.80
2019-02-27T04:43:40.577Z,38.30
2019-02-27T04:46:08.345Z,36.90
2019-02-27T04:48:36.748Z,32.77
2019-02-27T04:51:04.623Z,35.50
2019-02-27T04:53:32.592Z,32.43
2019-02-27T04:56:00.639Z,34.73
2019-02-27T04:58:28.411Z,40.67
2019-02-27T05:00:59.287Z,37.00
2019-02-27T05:03:28.531Z,40.20
2019-02-27T05:05:56.638Z,35.47
2019-02-27T05:08:26.895Z,34.50
2019-02-27T05:10:54.264Z,33.30
2019-02-27T05:13:26.248Z,40.30
2019-02-27T05:15:54.055Z,34.60
2019-02-27T05:18:22.138Z,37.03
2019-02-27T05:20:51.840Z,30.90
2019-02-27T05:23:19.631Z,36.00
2019-02-27T05:25:47.402Z,35.80
2019-02-27T05:28:15.349Z,40.17
2019-02-27T05:30:45.251Z,39.80
2019-02-27T05:33:12.925Z,39.13
2019-02-27T05:35:41.011Z,40.03
2019-02-27T05:38:09.002Z,38.53
2019-02-27T05:40:39.792Z,39.87
2019-02-27T05:43:13.216Z,37.07
2019-02-27T05:45:39.106Z,35.13
2019-02-27T05:48:06.874Z,37.50
2019-02-27T05:50:34.903Z,32.87
2019-02-27T05:53:02.786Z,41.37
2019-02-27T05:55:30.861Z,38.23
2019-02-27T05:57:58.664Z,37.13
2019-02-27T06:00:26.441Z,45.03
2019-02-27T06:02:54.367Z,36.77
2019-02-27T06:05:22.252Z,33.93
2019-02-27T06:07:50.202Z,34.73
2019-02-27T06:10:20.071Z,38.60
2019-02-27T06:12:47.891Z,37.10
2019-02-27T06:15:16.602Z,39.37
2019-02-27T06:17:48.719Z,37.57
2019-02-27T06:20:14.395Z,45.60
2019-02-27T06:22:42.441Z,45.33
2019-02-27T06:25:14.131Z,41.17
2019-02-27T06:27:41.970Z,35.13
2019-02-27T06:30:16.084Z,34.70
2019-02-27T06:32:43.880Z,41.07
2019-02-27T06:35:12.496Z,37.00
2019-02-27T06:37:40.514Z,37.93
2019-02-27T06:40:10.396Z,40.47
2019-02-27T06:42:38.351Z,41.73
2019-02-27T06:45:10.201Z,37.37
2019-02-27T06:47:38.171Z,42.30
2019-02-27T06:50:08.215Z,45.13
2019-02-27T06:52:36.008Z,39.50
2019-02-27T06:55:04.886Z,38.80
2019-02-27T06:57:32.902Z,37.47
2019-02-27T07:00:02.949Z,42.03
2019-02-27T07:02:30.695Z,36.27
2019-02-27T07:04:58.481Z,36.80
2019-02-27T07:07:28.807Z,39.07
2019-02-27T07:09:56.158Z,38.40
2019-02-27T07:12:25.756Z,47.50
2019-02-27T07:14:55.994Z,41.70
2019-02-27T07:17:23.766Z,36.40
2019-02-27T07:19:51.566Z,40.83
2019-02-27T07:22:19.504Z,32.50
2019-02-27T07:24:48.395Z,33.93
2019-02-27T07:27:16.211Z,33.37
2019-02-27T07:29:44.133Z,39.37
2019-02-27T07:32:12.108Z,37.23
2019-02-27T07:34:39.925Z,36.30
2019-02-27T07:37:07.845Z,31.60
2019-02-27T07:39:35.621Z,30.27
2019-02-27T07:42:03.535Z,35.00
2019-02-27T07:44:32.244Z,29.07
2019-02-27T07:47:01.142Z,28.77
2019-02-27T07:49:30.852Z,28.90
2019-02-27T07:51:59.351Z,27.47
2019-02-27T07:54:29.044Z,24.93
2019-02-27T07:56:56.964Z,25.70
2019-02-27T07:59:24.931Z,25.63
2019-02-27T08:01:52.715Z,26.27
2019-02-27T08:04:22.836Z,25.77
2019-02-27T08:06:50.290Z,24.70
2019-02-27T08:09:18.068Z,24.80
2019-02-27T08:11:47.340Z,21.50
2019-02-27T08:14:15.704Z,23.93
2019-02-27T08:16:43.485Z,23.60
2019-02-27T08:19:13.231Z,26.40
2019-02-27T08:21:41.201Z,26.90
2019-02-27T08:24:09.009Z,25.37
2019-02-27T08:26:37.067Z,22.63
2019-02-27T08:29:05.023Z,21.50
2019-02-27T08:31:33.904Z,27.37
2019-02-27T08:34:01.882Z,25.03
2019-02-27T08:36:29.685Z,21.77
2019-02-27T08:38:57.595Z,19.70
2019-02-27T08:41:25.385Z,18.10
2019-02-27T08:43:53.480Z,17.77
2019-02-27T08:46:21.656Z,18.70
2019-02-27T08:48:50.102Z,14.23
2019-02-27T08:51:28.431Z,12.63
2019-02-27T08:53:58.955Z,15.93
2019-02-27T08:56:25.993Z,14.60
2019-02-27T08:58:53.908Z,14.70
2019-02-27T09:01:22.399Z,15.97
2019-02-27T09:03:50.362Z,12.23
2019-02-27T09:06:18.753Z,14.87
2019-02-27T09:08:46.608Z,11.37
2019-02-27T09:11:14.787Z,11.13
2019-02-27T09:13:42.831Z,10.70
2019-02-27T09:16:10.594Z,11.83
2019-02-27T09:18:39.471Z,9.10
2019-02-27T09:21:07.415Z,8.60
2019-02-27T09:23:35.203Z,8.60
2019-02-27T09:26:03.583Z,9.37
2019-02-27T09:28:31.638Z,8.60
2019-02-27T09:31:04.202Z,9.60
2019-02-27T09:33:38.576Z,10.10
2019-02-27T09:36:00.882Z,9.57
2019-02-27T09:38:29.912Z,9.50
2019-02-27T09:40:57.857Z,9.17
2019-02-27T09:43:27.199Z,10.07
2019-02-27T09:45:55.467Z,9.60
2019-02-27T09:48:23.427Z,8.80
2019-02-27T09:50:51.210Z,11.00
2019-02-27T09:53:23.073Z,10.20
2019-02-27T09:55:53.516Z,12.27
2019-02-27T09:58:22.551Z,9.93
2019-02-27T10:00:59.208Z,10.00
2019-02-27T10:03:24.144Z,11.33
2019-02-27T10:05:51.918Z,10.83
2019-02-27T10:08:20.000Z,12.30
2019-02-27T10:10:47.774Z,10.60
2019-02-27T10:13:15.739Z,10.83
2019-02-27T10:15:43.518Z,13.03
2019-02-27T10:18:11.301Z,11.50
2019-02-27T10:20:39.228Z,11.97
2019-02-27T10:23:07.001Z,13.10
2019-02-27T10:25:34.782Z,10.80
2019-02-27T10:28:04.821Z,11.20
2019-02-27T10:30:32.783Z,13.90
2019-02-27T10:33:00.585Z,12.83
2019-02-27T10:35:29.404Z,11.73
2019-02-27T10:37:58.526Z,11.53
2019-02-27T10:40:26.629Z,13.03
2019-02-27T10:42:54.422Z,14.00
2019-02-27T10:45:22.313Z,12.83
2019-02-27T10:47:50.101Z,14.33
2019-02-27T10:50:17.931Z,12.60
2019-02-27T10:52:45.879Z,12.60
2019-02-27T10:55:14.916Z,12.77
2019-02-27T10:57:42.729Z,12.53
2019-02-27T11:00:26.296Z,15.00
2019-02-27T11:02:54.113Z,13.17
2019-02-27T11:05:22.390Z,14.23
2019-02-27T11:07:52.882Z,13.53
2019-02-27T11:10:21.761Z,15.20
2019-02-27T11:12:49.701Z,14.40
2019-02-27T11:15:18.043Z,14.70
2019-02-27T11:17:47.818Z,16.97
2019-02-27T11:20:20.290Z,16.30
2019-02-27T11:22:45.608Z,16.23
2019-02-27T11:25:16.099Z,16.20
2019-02-27T11:27:44.218Z,14.50
2019-02-27T11:30:15.706Z,16.20
2019-02-27T11:32:43.657Z,15.43
2019-02-27T11:35:11.458Z,13.67
2019-02-27T11:37:39.359Z,15.70
2019-02-27T11:40:10.585Z,15.00
2019-02-27T11:42:38.373Z,18.07
2019-02-27T11:45:06.860Z,15.07
2019-02-27T11:47:35.917Z,13.97
2019-02-27T11:50:04.738Z,16.53
2019-02-27T11:52:32.542Z,22.23
2019-02-27T11:55:00.452Z,15.87
2019-02-27T11:57:30.516Z,14.70
2019-02-27T11:59:58.099Z,17.00
2019-02-27T12:02:29.017Z,13.93
2019-02-27T12:04:56.628Z,14.93
2019-02-27T12:07:24.602Z,14.30
2019-02-27T12:09:52.573Z,15.37
2019-02-27T12:12:22.714Z,16.30
2019-02-27T12:14:50.084Z,15.80
2019-02-27T12:17:18.038Z,15.37
2019-02-27T12:19:45.802Z,15.83
2019-02-27T12:22:13.602Z,16.17
2019-02-27T12:24:42.665Z,14.63
2019-02-27T12:27:24.321Z,16.27
2019-02-27T12:29:40.901Z,15.80
2019-02-27T12:32:08.694Z,17.13
2019-02-27T12:34:37.053Z,14.73
2019-02-27T12:37:05.740Z,17.00
2019-02-27T12:39:33.555Z,16.73
2019-02-27T12:42:01.353Z,14.47
2019-02-27T12:44:29.325Z,17.50
2019-02-27T12:46:57.098Z,14.33
2019-02-27T12:49:24.948Z,17.03
2019-02-27T12:51:52.944Z,14.80
2019-02-27T12:54:20.789Z,14.43
2019-02-27T12:56:48.615Z,15.33
2019-02-27T12:59:16.569Z,14.57
2019-02-27T13:01:45.625Z,16.00
2019-02-27T13:04:16.637Z,15.37
2019-02-27T13:06:44.467Z,14.83
2019-02-27T13:09:12.241Z,17.70
2019-02-27T13:11:41.637Z,15.00
2019-02-27T13:14:09.819Z,14.60
2019-02-27T13:16:37.604Z,16.07
2019-02-27T13:19:07.065Z,18.47
2019-02-27T13:21:36.289Z,16.50
2019-02-27T13:24:04.080Z,16.77
2019-02-27T13:26:34.688Z,15.40
2019-02-27T13:29:01.777Z,13.93
2019-02-27T13:31:29.669Z,18.03
2019-02-27T13:33:57.489Z,21.67
2019-02-27T13:36:26.507Z,15.27
2019-02-27T13:38:54.386Z,19.53
2019-02-27T13:41:23.685Z,17.57
2019-02-27T13:43:52.214Z,15.73
2019-02-27T13:46:20.223Z,18.50
2019-02-27T13:48:49.680Z,18.83
2019-02-27T13:51:17.622Z,18.30
2019-02-27T13:53:45.405Z,17.70
2019-02-27T13:56:13.355Z,22.37
2019-02-27T13:58:42.340Z,16.30
2019-02-27T14:01:12.085Z,19.10
2019-02-27T14:03:40.148Z,18.70
2019-02-27T14:06:09.382Z,18.83
2019-02-27T14:08:40.296Z,16.43
2019-02-27T14:11:08.263Z,16.57
2019-02-27T14:13:36.063Z,20.10
2019-02-27T14:16:04.143Z,18.70
2019-02-27T14:18:32.253Z,18.80
2019-02-27T14:21:01.649Z,19.73
2019-02-27T14:23:29.981Z,15.97
2019-02-27T14:25:57.748Z,18.03
2019-02-27T14:28:25.753Z,17.23
2019-02-27T14:30:53.695Z,16.80
2019-02-27T14:33:21.468Z,17.97
2019-02-27T14:35:49.246Z,19.07
2019-02-27T14:38:17.211Z,20.07
2019-02-27T14:40:45.188Z,19.37
2019-02-27T14:43:13.139Z,18.80
2019-02-27T14:45:41.144Z,22.27
2019-02-27T14:48:09.030Z,20.97
2019-02-27T14:50:36.783Z,19.80
2019-02-27T14:53:04.943Z,20.33
2019-02-27T14:55:36.299Z,22.07
2019-02-27T14:58:04.298Z,22.07
2019-02-27T15:00:32.553Z,20.43
2019-02-27T15:03:00.324Z,22.13
2019-02-27T15:05:28.303Z,23.93
2019-02-27T15:07:56.137Z,21.07
2019-02-27T15:10:24.403Z,24.80
2019-02-27T15:12:55.082Z,24.17
2019-02-27T15:15:27.853Z,22.73
2019-02-27T15:17:55.747Z,23.10
2019-02-27T15:20:24.799Z,25.13
2019-02-27T15:22:53.677Z,26.30
2019-02-27T15:25:21.789Z,25.63
2019-02-27T15:27:49.568Z,22.17
2019-02-27T15:30:20.492Z,25.73
2019-02-27T15:32:48.291Z,24.47
2019-02-27T15:35:21.009Z,23.70
2019-02-27T15:37:48.164Z,23.57
2019-02-27T15:40:18.324Z,25.10
2019-02-27T15:42:46.629Z,23.43
2019-02-27T15:45:16.002Z,24.50
2019-02-27T15:47:44.135Z,23.87
2019-02-27T15:50:14.482Z,25.47
2019-02-27T15:52:43.649Z,23.93
2019-02-27T15:55:12.207Z,26.10
2019-02-27T15:57:40.009Z,26.00
2019-02-27T16:00:12.367Z,28.93
2019-02-27T16:02:40.830Z,27.70
2019-02-27T16:05:10.648Z,25.73
2019-02-27T16:07:38.747Z,26.17
2019-02-27T16:10:11.183Z,25.13
2019-02-27T16:12:39.004Z,24.70
2019-02-27T16:15:07.857Z,26.93
2019-02-27T16:17:35.739Z,39.13
2019-02-27T16:20:06.049Z,26.67
2019-02-27T16:22:33.965Z,26.50
2019-02-27T16:25:01.850Z,26.73
2019-02-27T16:27:32.178Z,30.03
2019-02-27T16:29:59.578Z,27.43
2019-02-27T16:32:27.467Z,25.03
2019-02-27T16:34:55.249Z,26.30
2019-02-27T16:37:23.209Z,27.83
2019-02-27T16:39:51.216Z,32.03
2019-02-27T16:42:20.082Z,31.10
2019-02-27T16:44:47.983Z,35.43
2019-02-27T16:47:19.636Z,31.80
2019-02-27T16:49:47.286Z,37.03
2019-02-27T16:52:15.277Z,27.87
2019-02-27T16:54:43.069Z,30.03
2019-02-27T16:57:11.030Z,27.73
2019-02-27T16:59:38.825Z,29.63
2019-02-27T17:02:06.714Z,29.00
2019-02-27T17:04:34.913Z,27.57
2019-02-27T17:07:03.022Z,28.10
2019-02-27T17:09:30.820Z,31.93
2019-02-27T17:11:58.778Z,28.73
2019-02-27T17:14:26.743Z,30.70
2019-02-27T17:16:55.359Z,31.80
2019-02-27T17:19:23.139Z,29.30
2019-02-27T17:21:52.514Z,32.00
2019-02-27T17:24:21.862Z,35.23
2019-02-27T17:26:50.097Z,35.63
2019-02-27T17:29:17.886Z,34.97
2019-02-27T17:31:49.392Z,31.93
2019-02-27T17:34:15.746Z,30.60
2019-02-27T17:36:43.549Z,47.03
2019-02-27T17:39:11.480Z,31.90
2019-02-27T17:41:41.857Z,31.50
2019-02-27T17:44:10.405Z,31.20
2019-02-27T17:46:38.192Z,31.67
2019-02-27T17:49:07.350Z,30.67
2019-02-27T17:51:35.463Z,32.53
2019-02-27T17:54:03.436Z,32.87
2019-02-27T17:56:31.240Z,32.90
2019-02-27T17:58:59.119Z,31.60
2019-02-27T18:01:27.264Z,38.97
2019-02-27T18:03:55.077Z,34.97
2019-02-27T18:06:22.927Z,35.00
2019-02-27T18:08:52.440Z,39.33
2019-02-27T18:11:20.485Z,36.60
2019-02-27T18:13:48.472Z,35.87
2019-02-27T18:16:16.401Z,40.90
2019-02-27T18:18:44.406Z,33.13
2019-02-27T18:21:12.212Z,34.37
2019-02-27T18:23:40.160Z,34.30
2019-02-27T18:26:08.139Z,32.53
2019-02-27T18:28:38.358Z,38.00
2019-02-27T18:31:05.945Z,37.60
2019-02-27T18:33:33.957Z,35.80
2019-02-27T18:36:04.694Z,37.73
2019-02-27T18:38:31.958Z,37.70
2019-02-27T18:40:59.744Z,36.40
2019-02-27T18:43:30.119Z,35.63
2019-02-27T18:45:57.514Z,36.30
2019-02-27T18:48:25.457Z,43.03
2019-02-27T18:50:55.988Z,37.70
2019-02-27T18:53:24.147Z,35.37
2019-02-27T18:55:52.290Z,38.10
2019-02-27T18:58:20.969Z,38.43
2019-02-27T19:00:49.625Z,35.47
2019-02-27T19:03:17.545Z,39.00
2019-02-27T19:05:45.312Z,42.20
2019-02-27T19:08:13.295Z,41.27
2019-02-27T19:10:42.523Z,44.70
2019-02-27T19:13:10.909Z,45.47
2019-02-27T19:15:38.996Z,44.47
2019-02-27T19:18:07.420Z,47.03
2019-02-27T19:20:36.193Z,44.53
2019-02-27T19:23:04.240Z,47.70
2019-02-27T19:25:34.818Z,41.83
2019-02-27T19:28:03.532Z,46.53
2019-02-27T19:30:31.377Z,43.60
2019-02-27T19:33:02.081Z,41.77
2019-02-27T19:35:30.057Z,46.10
2019-02-27T19:37:57.857Z,46.37
2019-02-27T19:40:29.861Z,47.70
2019-02-27T19:42:58.605Z,45.13
2019-02-27T19:45:26.845Z,40.87
2019-02-27T19:47:55.808Z,44.80
2019-02-27T19:50:24.114Z,41.97
2019-02-27T19:52:52.380Z,48.33
2019-02-27T19:55:20.379Z,43.90
2019-02-27T19:57:48.394Z,44.73
2019-02-27T20:00:19.621Z,50.07
2019-02-27T20:02:48.381Z,52.67
2019-02-27T20:05:19.158Z,48.03
2019-02-27T20:07:46.126Z,49.83
2019-02-27T20:10:14.695Z,49.80
2019-02-27T20:12:42.898Z,40.30
2019-02-27T20:15:12.074Z,46.80
2019-02-27T20:17:40.945Z,48.43
2019-02-27T20:20:11.428Z,45.07
2019-02-27T20:22:39.634Z,43.73
2019-02-27T20:25:10.033Z,50.17
2019-02-27T20:27:39.034Z,54.10
2019-02-27T20:30:14.110Z,50.60
2019-02-27T20:32:40.890Z,48.03
2019-02-27T20:35:11.207Z,52.10
2019-02-27T20:37:40.216Z,51.50
2019-02-27T20:40:10.883Z,54.30
2019-02-27T20:42:38.975Z,48.63
2019-02-27T20:45:10.281Z,46.63
2019-02-27T20:47:41.426Z,47.80
2019-02-27T20:50:13.863Z,44.97
2019-02-27T20:52:42.185Z,47.30
2019-02-27T20:55:10.212Z,44.97
2019-02-27T20:57:39.544Z,51.67
2019-02-27T21:00:11.373Z,43.37
2019-02-27T21:02:39.309Z,54.23
2019-02-27T21:05:09.576Z,50.20
2019-02-27T21:07:38.167Z,47.90
2019-02-27T21:10:09.811Z,50.00
2019-02-27T21:12:40.801Z,49.50
2019-02-27T21:15:09.320Z,50.10
2019-02-27T21:17:37.296Z,46.70
2019-02-27T21:20:11.113Z,50.63
2019-02-27T21:22:35.970Z,49.70
2019-02-27T21:25:06.578Z,52.03
2019-02-27T21:27:34.675Z,51.93
2019-02-27T21:30:04.060Z,52.47
2019-02-27T21:32:33.200Z,51.60
2019-02-27T21:35:01.970Z,52.43
2019-02-27T21:37:29.751Z,50.63
2019-02-27T21:40:02.034Z,55.50
2019-02-27T21:42:27.522Z,54.20
2019-02-27T21:44:55.472Z,55.50
2019-02-27T21:47:23.600Z,52.30
2019-02-27T21:49:51.737Z,58.63
2019-02-27T21:52:22.483Z,61.03
2019-02-27T21:54:49.646Z,59.27
2019-02-27T21:57:17.915Z,65.90
2019-02-27T21:59:45.807Z,59.90
2019-02-27T22:02:13.653Z,57.80
2019-02-27T22:04:44.043Z,54.57
2019-02-27T22:07:11.684Z,56.77
2019-02-27T22:09:39.753Z,63.03
2019-02-27T22:12:08.042Z,57.00
2019-02-27T22:14:36.084Z,59.27
2019-02-27T22:17:04.992Z,61.40
2019-02-27T22:19:33.805Z,59.40
2019-02-27T22:22:01.875Z,62.60
2019-02-27T22:24:29.812Z,56.67
2019-02-27T22:27:03.703Z,59.40
2019-02-27T22:29:31.592Z,58.70
2019-02-27T22:31:59.676Z,62.40
2019-02-27T22:34:28.025Z,55.97
2019-02-27T22:36:56.877Z,62.00
2019-02-27T22:39:24.798Z,56.37
2019-02-27T22:41:52.572Z,64.40
2019-02-27T22:44:20.647Z,56.30
2019-02-27T22:46:48.650Z,52.67
2019-02-27T22:49:16.676Z,67.73
2019-02-27T22:51:47.394Z,60.87
2019-02-27T22:54:14.623Z,69.23
2019-02-27T22:56:42.661Z,62.37
2019-02-27T22:59:10.511Z,57.60
2019-02-27T23:01:43.353Z,60.87
2019-02-27T23:04:11.708Z,60.60
2019-02-27T23:06:39.820Z,61.17
2019-02-27T23:09:10.998Z,64.73
2019-02-27T23:11:40.171Z,63.20
2019-02-27T23:14:08.510Z,68.83
2019-02-27T23:16:37.634Z,66.50
2019-02-27T23:19:07.385Z,69.90
2019-02-27T23:21:35.708Z,63.03
2019-02-27T23:24:03.921Z,61.37
2019-02-27T23:26:32.035Z,59.60
2019-02-27T23:29:01.267Z,68.27
2019-02-27T23:31:32.154Z,67.00
2019-02-27T23:34:00.009Z,69.57
2019-02-27T23:36:27.901Z,63.00
2019-02-27T23:38:55.808Z,67.63
2019-02-27T23:41:23.915Z,65.23
2019-02-27T23:43:51.837Z,60.20
2019-02-27T23:46:19.889Z,63.20
2019-02-27T23:48:49.478Z,64.93
2019-02-27T23:51:17.272Z,69.10
2019-02-27T23:53:45.213Z,69.67
2019-02-27T23:56:13.158Z,66.93
2019-02-27T23:58:44.824Z,67.13
